CMA CGM Herodote — MFEP — position and weather

sailwx.info

Track history (hours):
 
Tides and Currents Weather Stations Pressure Air Temp Water Temp Dewpoint Dewpoint Depression Visibility Wind Speed Wind Dir Waves Ship Positions

CMA CGM Herodote

Last reported at 2016-Dec-07 08:31 UTC. Time now 2016-Dec-07 10:41 UTC.
Position N 51°18' E 004°16'.

Length 170 m; draft 8.7 m.

Type: Ship (hazmat cat A). MMSI: 235051085.

Date/timePositionNaut miles runAvg speedWind from/ knotsBaromVisibWave heightAir tempDewpointWater temp
2016-Dec-07 08:31N 51°18' E 004°16'4 4.3
2016-Dec-07 07:33N 51°22' E 004°14'1010.3
2016-Dec-07 06:34N 51°26' E 003°59'1010.4
2016-Dec-07 05:33N 51°24' E 003°42'1111.1
2016-Dec-07 04:33N 51°30' E 003°27'1211.9
2016-Dec-07 03:34N 51°41' E 003°18'7 7.0
2016-Dec-07 02:33N 51°47' E 003°14'9 7.1
2016-Dec-07 01:17N 51°56' E 003°18'8 9.7
2016-Dec-07 00:26N 52°04' E 003°20'1414.8
2016-Dec-06 23:28N 52°18' E 003°22'1314.5
2016-Dec-06 22:33N 52°31' E 003°29'1514.5
2016-Dec-06 21:32N 52°44' E 003°40'1515.0
2016-Dec-06 20:32N 52°55' E 003°57'2914.5
2016-Dec-06 18:32N 53°16' E 004°30'1413.9
2016-Dec-06 17:31N 53°28' E 004°42'1515.0
2016-Dec-06 16:33N 53°34' E 005°05'1515.3
2016-Dec-06 15:33N 53°39' E 005°29'1514.9
2016-Dec-06 14:33N 53°44' E 005°53'1615.2
2016-Dec-06 13:31N 53°49' E 006°18'1514.8
2016-Dec-06 12:31N 53°53' E 006°42'1111.6
2016-Dec-06 11:33N 53°55' E 007°00'1111.2
2016-Dec-06 10:33N 53°58' E 007°19'1111.2
2016-Dec-06 09:33N 54°01' E 007°38'1111.2
2016-Dec-06 08:33N 54°02' E 007°57'1111.1
2016-Dec-06 07:33N 54°00' E 008°15'1515.4
2016-Dec-06 06:33N 53°56' E 008°40'1111.0
2016-Dec-06 05:33N 53°51' E 008°57'10 9.8
2016-Dec-06 04:33N 53°53' E 009°13'1111.0
2016-Dec-06 03:33N 53°45' E 009°25'1111.0
2016-Dec-06 02:33N 53°36' E 009°36'1110.6
2016-Dec-06 01:33N 53°33' E 009°53'1 1.0
2016-Dec-06 00:32N 53°32' E 009°55'0 0.0
2016-Dec-05 23:32N 53°32' E 009°55'0 0.0
2016-Dec-05 22:32N 53°32' E 009°55'0 0.0
2016-Dec-05 21:32N 53°32' E 009°55'0 0.0
2016-Dec-05 20:32N 53°32' E 009°55'0 0.0
2016-Dec-05 19:32N 53°32' E 009°55'0 0.0
2016-Dec-05 18:29N 53°32' E 009°55'0 0.0
2016-Dec-05 17:32N 53°32' E 009°55'0 0.0
2016-Dec-05 16:32N 53°32' E 009°55'0 0.0
2016-Dec-05 15:32N 53°32' E 009°55'0 0.0
2016-Dec-05 14:33N 53°32' E 009°55'6 5.9
2016-Dec-05 13:33N 53°34' E 009°45'1111.1
2016-Dec-05 12:33N 53°40' E 009°30'1212.1
2016-Dec-05 11:33N 53°51' E 009°20'10 9.6
2016-Dec-05 10:33N 53°52' E 009°03'1110.7
2016-Dec-05 09:33N 53°51' E 008°45'10 9.8
2016-Dec-05 08:33N 53°58' E 008°33'1312.5
2016-Dec-05 07:33N 53°60' E 008°12'1010.0
2016-Dec-05 06:33N 53°58' E 007°56'9 9.1
2016-Dec-05 05:33N 53°56' E 007°41'1313.2
2016-Dec-05 04:33N 53°53' E 007°19'2117.7
2016-Dec-05 03:23N 53°48' E 006°45'1517.5
2016-Dec-05 02:32N 53°44' E 006°20'1817.6
2016-Dec-05 01:32N 53°40' E 005°51'1817.7
2016-Dec-05 00:33N 53°34' E 005°24'1717.6
2016-Dec-04 23:33N 53°27' E 004°57'1716.7
2016-Dec-04 22:34N 53°15' E 004°37'1817.7
2016-Dec-04 21:33N 52°60' E 004°22'1817.7
2016-Dec-04 20:33N 52°45' E 004°08'1515.2
2016-Dec-04 19:33N 52°31' E 003°55'1515.3
2016-Dec-04 18:33N 52°16' E 003°53'1413.7
2016-Dec-04 17:33N 52°03' E 003°55'1111.0
2016-Dec-04 16:33N 51°57' E 004°10'9 8.7
2016-Dec-04 15:33N 51°54' E 004°24'2 1.6
2016-Dec-04 14:31N 51°54' E 004°26'0 0.0
2016-Dec-04 13:32N 51°54' E 004°26'0 0.0
2016-Dec-04 12:32N 51°54' E 004°26'0 0.0
2016-Dec-04 11:32N 51°54' E 004°26'0 0.0
2016-Dec-04 10:32N 51°54' E 004°26'0 0.0
2016-Dec-04 09:32N 51°54' E 004°26'0 0.0
2016-Dec-04 08:32N 51°54' E 004°26'0 0.0
2016-Dec-04 07:32N 51°54' E 004°26'0 0.0
2016-Dec-04 06:32N 51°54' E 004°26'0 0.0
2016-Dec-04 05:32N 51°54' E 004°26'0 0.0
2016-Dec-04 04:32N 51°54' E 004°26'0 0.0
2016-Dec-04 03:32N 51°54' E 004°26'0 0.0
2016-Dec-04 02:32N 51°54' E 004°26'0 0.0
2016-Dec-04 01:31N 51°54' E 004°26'0 0.0
2016-Dec-04 00:32N 51°54' E 004°26'0 0.0
2016-Dec-03 23:32N 51°54' E 004°26'0 0.0
2016-Dec-03 22:31N 51°54' E 004°26'5 5.1
2016-Dec-03 21:33N 51°54' E 004°18'9 9.0
2016-Dec-03 20:33N 51°59' E 004°06'1211.5
2016-Dec-03 19:33N 51°59' E 003°48'5515.9
2016-Dec-03 16:07N 51°39' E 002°25'1018.2
2016-Dec-03 15:33N 51°32' E 002°14'1414.0
2016-Dec-03 14:34N 51°28' E 001°52'1615.6
2016-Dec-03 13:33N 51°27' E 001°27'10 9.6
2016-Dec-03 12:33N 51°29' E 001°12'1111.2
2016-Dec-03 11:33N 51°29' E 000°54'1211.7
2016-Dec-03 10:33N 51°30' E 000°36'9 9.0
2016-Dec-03 09:33N 51°27' E 000°22'2 1.6
2016-Dec-03 08:34N 51°28' E 000°20'0 0.0
2016-Dec-03 07:34N 51°28' E 000°20'0 0.0
2016-Dec-03 06:34N 51°28' E 000°20'0 0.0
2016-Dec-03 05:34N 51°28' E 000°20'0 0.0
2016-Dec-03 04:34N 51°28' E 000°20'0 0.0
2016-Dec-03 03:34N 51°28' E 000°20'0 0.0
2016-Dec-03 02:34N 51°28' E 000°20'0 0.0
2016-Dec-03 01:34N 51°28' E 000°20'0 0.0
2016-Dec-03 00:34N 51°28' E 000°20'0 0.0
2016-Dec-02 23:33N 51°28' E 000°20'0 0.0
2016-Dec-02 22:33N 51°28' E 000°20'0 0.0
2016-Dec-02 21:33N 51°28' E 000°20'4 3.8
2016-Dec-02 20:33N 51°27' E 000°26'1110.7
2016-Dec-02 19:33N 51°30' E 000°43'1413.5
2016-Dec-02 18:33N 51°30' E 001°04'1312.6
2016-Dec-02 17:33N 51°28' E 001°24'10 9.9
2016-Dec-02 16:33N 51°21' E 001°36'10 9.8
2016-Dec-02 15:33N 51°12' E 001°37'1010.4
2016-Dec-02 14:34N 51°02' E 001°33'1312.9
2016-Dec-02 13:33N 50°50' E 001°23'1513.2
2016-Dec-02 12:25N 50°37' E 001°11'2813.5
2016-Dec-02 10:21N 50°26' E 000°31'1114.1
2016-Dec-02 09:33N 50°23' E 000°14'1414.5
2016-Dec-02 08:34N 50°19' W 000°07'1514.4
2016-Dec-02 07:31N 50°16' W 000°30'2914.4
2016-Dec-02 05:32N 50°08' W 001°13'1414.5
2016-Dec-02 04:33N 50°04' W 001°35'1414.5
2016-Dec-02 03:33N 50°00' W 001°56'1414.3
2016-Dec-02 02:33N 49°56' W 002°18'1414.1
2016-Dec-02 01:34N 49°52' W 002°39'1414.3
2016-Dec-02 00:33N 49°47' W 002°60'1414.2
2016-Dec-01 23:33N 49°40' W 003°18'1414.3
2016-Dec-01 22:33N 49°32' W 003°37'1414.3
2016-Dec-01 21:33N 49°25' W 003°56'1514.6
2016-Dec-01 20:33N 49°18' W 004°15'1514.6
2016-Dec-01 19:33N 49°10' W 004°35'1514.8
2016-Dec-01 18:31N 49°03' W 004°55'1414.8
2016-Dec-01 17:33N 48°56' W 005°14'1515.1
2016-Dec-01 16:33N 48°49' W 005°35'2914.7
2016-Dec-01 14:33N 48°23' W 005°55'1615.8
2016-Dec-01 13:33N 48°09' W 006°06'1716.7
2016-Dec-01 12:33N 47°54' W 006°18'1616.3
2016-Dec-01 11:33N 47°40' W 006°29'1616.1
2016-Dec-01 10:33N 47°25' W 006°40'50516.1
2016-Nov-30 03:11N 39°20' W 009°51'1116.8
2016-Nov-30 02:33N 39°10' W 009°52'1616.5
2016-Nov-30 01:33N 38°53' W 009°52'1716.6
2016-Nov-30 00:33N 38°37' W 009°50'1716.7
2016-Nov-29 23:33N 38°21' W 009°45'1817.0
2016-Nov-29 22:30N 38°03' W 009°40'1616.9
2016-Nov-29 21:33N 37°47' W 009°35'22414.8
2016-Nov-29 06:30N 35°58' W 005°32'4 0.4
2016-Nov-28 20:16N 35°54' W 005°33'6 0.6
2016-Nov-28 10:33N 35°59' W 005°29'1110.9
2016-Nov-28 09:33N 36°03' W 005°16'  
Track history (hours):
 
Tides and Currents Weather Stations Pressure Air Temp Water Temp Dewpoint Dewpoint Depression Visibility Wind Speed Wind Dir Waves Ship Positions

CMA CGM Herodote

Last reported at 2016-Dec-07 08:31 UTC. Time now 2016-Dec-07 10:41 UTC.
Position N 51°18' E 004°16'.

Length 170 m; draft 8.7 m.

Type: Ship (hazmat cat A). MMSI: 235051085.

Date/timePositionNaut miles runAvg speedWind from/ knotsBaromVisibWave heightAir tempDewpointWater temp
2016-Dec-07 08:31N 51°18' E 004°16'4 4.3
2016-Dec-07 07:33N 51°22' E 004°14'1010.3
2016-Dec-07 06:34N 51°26' E 003°59'1010.4
2016-Dec-07 05:33N 51°24' E 003°42'1111.1
2016-Dec-07 04:33N 51°30' E 003°27'1211.9
2016-Dec-07 03:34N 51°41' E 003°18'7 7.0
2016-Dec-07 02:33N 51°47' E 003°14'9 7.1
2016-Dec-07 01:17N 51°56' E 003°18'8 9.7
2016-Dec-07 00:26N 52°04' E 003°20'1414.8
2016-Dec-06 23:28N 52°18' E 003°22'1314.5
2016-Dec-06 22:33N 52°31' E 003°29'1514.5
2016-Dec-06 21:32N 52°44' E 003°40'1515.0
2016-Dec-06 20:32N 52°55' E 003°57'2914.5
2016-Dec-06 18:32N 53°16' E 004°30'1413.9
2016-Dec-06 17:31N 53°28' E 004°42'1515.0
2016-Dec-06 16:33N 53°34' E 005°05'1515.3
2016-Dec-06 15:33N 53°39' E 005°29'1514.9
2016-Dec-06 14:33N 53°44' E 005°53'1615.2
2016-Dec-06 13:31N 53°49' E 006°18'1514.8
2016-Dec-06 12:31N 53°53' E 006°42'1111.6
2016-Dec-06 11:33N 53°55' E 007°00'1111.2
2016-Dec-06 10:33N 53°58' E 007°19'1111.2
2016-Dec-06 09:33N 54°01' E 007°38'1111.2
2016-Dec-06 08:33N 54°02' E 007°57'1111.1
2016-Dec-06 07:33N 54°00' E 008°15'1515.4
2016-Dec-06 06:33N 53°56' E 008°40'1111.0
2016-Dec-06 05:33N 53°51' E 008°57'10 9.8
2016-Dec-06 04:33N 53°53' E 009°13'1111.0
2016-Dec-06 03:33N 53°45' E 009°25'1111.0
2016-Dec-06 02:33N 53°36' E 009°36'1110.6
2016-Dec-06 01:33N 53°33' E 009°53'1 1.0
2016-Dec-06 00:32N 53°32' E 009°55'0 0.0
2016-Dec-05 23:32N 53°32' E 009°55'0 0.0
2016-Dec-05 22:32N 53°32' E 009°55'0 0.0
2016-Dec-05 21:32N 53°32' E 009°55'0 0.0
2016-Dec-05 20:32N 53°32' E 009°55'0 0.0
2016-Dec-05 19:32N 53°32' E 009°55'0 0.0
2016-Dec-05 18:29N 53°32' E 009°55'0 0.0
2016-Dec-05 17:32N 53°32' E 009°55'0 0.0
2016-Dec-05 16:32N 53°32' E 009°55'0 0.0
2016-Dec-05 15:32N 53°32' E 009°55'0 0.0
2016-Dec-05 14:33N 53°32' E 009°55'6 5.9
2016-Dec-05 13:33N 53°34' E 009°45'1111.1
2016-Dec-05 12:33N 53°40' E 009°30'1212.1
2016-Dec-05 11:33N 53°51' E 009°20'10 9.6
2016-Dec-05 10:33N 53°52' E 009°03'1110.7
2016-Dec-05 09:33N 53°51' E 008°45'10 9.8
2016-Dec-05 08:33N 53°58' E 008°33'1312.5
2016-Dec-05 07:33N 53°60' E 008°12'1010.0
2016-Dec-05 06:33N 53°58' E 007°56'9 9.1
2016-Dec-05 05:33N 53°56' E 007°41'1313.2
2016-Dec-05 04:33N 53°53' E 007°19'2117.7
2016-Dec-05 03:23N 53°48' E 006°45'1517.5
2016-Dec-05 02:32N 53°44' E 006°20'1817.6
2016-Dec-05 01:32N 53°40' E 005°51'1817.7
2016-Dec-05 00:33N 53°34' E 005°24'1717.6
2016-Dec-04 23:33N 53°27' E 004°57'1716.7
2016-Dec-04 22:34N 53°15' E 004°37'1817.7
2016-Dec-04 21:33N 52°60' E 004°22'1817.7
2016-Dec-04 20:33N 52°45' E 004°08'1515.2
2016-Dec-04 19:33N 52°31' E 003°55'1515.3
2016-Dec-04 18:33N 52°16' E 003°53'1413.7
2016-Dec-04 17:33N 52°03' E 003°55'1111.0
2016-Dec-04 16:33N 51°57' E 004°10'9 8.7
2016-Dec-04 15:33N 51°54' E 004°24'2 1.6
2016-Dec-04 14:31N 51°54' E 004°26'0 0.0
2016-Dec-04 13:32N 51°54' E 004°26'0 0.0
2016-Dec-04 12:32N 51°54' E 004°26'0 0.0
2016-Dec-04 11:32N 51°54' E 004°26'0 0.0
2016-Dec-04 10:32N 51°54' E 004°26'0 0.0
2016-Dec-04 09:32N 51°54' E 004°26'0 0.0
2016-Dec-04 08:32N 51°54' E 004°26'0 0.0
2016-Dec-04 07:32N 51°54' E 004°26'0 0.0
2016-Dec-04 06:32N 51°54' E 004°26'0 0.0
2016-Dec-04 05:32N 51°54' E 004°26'0 0.0
2016-Dec-04 04:32N 51°54' E 004°26'0 0.0
2016-Dec-04 03:32N 51°54' E 004°26'0 0.0
2016-Dec-04 02:32N 51°54' E 004°26'0 0.0
2016-Dec-04 01:31N 51°54' E 004°26'0 0.0
2016-Dec-04 00:32N 51°54' E 004°26'0 0.0
2016-Dec-03 23:32N 51°54' E 004°26'0 0.0
2016-Dec-03 22:31N 51°54' E 004°26'5 5.1
2016-Dec-03 21:33N 51°54' E 004°18'9 9.0
2016-Dec-03 20:33N 51°59' E 004°06'1211.5
2016-Dec-03 19:33N 51°59' E 003°48'5515.9
2016-Dec-03 16:07N 51°39' E 002°25'1018.2
2016-Dec-03 15:33N 51°32' E 002°14'1414.0
2016-Dec-03 14:34N 51°28' E 001°52'1615.6
2016-Dec-03 13:33N 51°27' E 001°27'10 9.6
2016-Dec-03 12:33N 51°29' E 001°12'1111.2
2016-Dec-03 11:33N 51°29' E 000°54'1211.7
2016-Dec-03 10:33N 51°30' E 000°36'9 9.0
2016-Dec-03 09:33N 51°27' E 000°22'2 1.6
2016-Dec-03 08:34N 51°28' E 000°20'0 0.0
2016-Dec-03 07:34N 51°28' E 000°20'0 0.0
2016-Dec-03 06:34N 51°28' E 000°20'0 0.0
2016-Dec-03 05:34N 51°28' E 000°20'0 0.0
2016-Dec-03 04:34N 51°28' E 000°20'0 0.0
2016-Dec-03 03:34N 51°28' E 000°20'0 0.0
2016-Dec-03 02:34N 51°28' E 000°20'0 0.0
2016-Dec-03 01:34N 51°28' E 000°20'0 0.0
2016-Dec-03 00:34N 51°28' E 000°20'0 0.0
2016-Dec-02 23:33N 51°28' E 000°20'0 0.0
2016-Dec-02 22:33N 51°28' E 000°20'0 0.0
2016-Dec-02 21:33N 51°28' E 000°20'4 3.8
2016-Dec-02 20:33N 51°27' E 000°26'1110.7
2016-Dec-02 19:33N 51°30' E 000°43'1413.5
2016-Dec-02 18:33N 51°30' E 001°04'1312.6
2016-Dec-02 17:33N 51°28' E 001°24'10 9.9
2016-Dec-02 16:33N 51°21' E 001°36'10 9.8
2016-Dec-02 15:33N 51°12' E 001°37'1010.4
2016-Dec-02 14:34N 51°02' E 001°33'1312.9
2016-Dec-02 13:33N 50°50' E 001°23'1513.2
2016-Dec-02 12:25N 50°37' E 001°11'2813.5
2016-Dec-02 10:21N 50°26' E 000°31'1114.1
2016-Dec-02 09:33N 50°23' E 000°14'1414.5
2016-Dec-02 08:34N 50°19' W 000°07'1514.4
2016-Dec-02 07:31N 50°16' W 000°30'2914.4
2016-Dec-02 05:32N 50°08' W 001°13'1414.5
2016-Dec-02 04:33N 50°04' W 001°35'1414.5
2016-Dec-02 03:33N 50°00' W 001°56'1414.3
2016-Dec-02 02:33N 49°56' W 002°18'1414.1
2016-Dec-02 01:34N 49°52' W 002°39'1414.3
2016-Dec-02 00:33N 49°47' W 002°60'1414.2
2016-Dec-01 23:33N 49°40' W 003°18'1414.3
2016-Dec-01 22:33N 49°32' W 003°37'1414.3
2016-Dec-01 21:33N 49°25' W 003°56'1514.6
2016-Dec-01 20:33N 49°18' W 004°15'1514.6
2016-Dec-01 19:33N 49°10' W 004°35'1514.8
2016-Dec-01 18:31N 49°03' W 004°55'1414.8
2016-Dec-01 17:33N 48°56' W 005°14'1515.1
2016-Dec-01 16:33N 48°49' W 005°35'2914.7
2016-Dec-01 14:33N 48°23' W 005°55'1615.8
2016-Dec-01 13:33N 48°09' W 006°06'1716.7
2016-Dec-01 12:33N 47°54' W 006°18'1616.3
2016-Dec-01 11:33N 47°40' W 006°29'1616.1
2016-Dec-01 10:33N 47°25' W 006°40'50516.1
2016-Nov-30 03:11N 39°20' W 009°51'1116.8
2016-Nov-30 02:33N 39°10' W 009°52'1616.5
2016-Nov-30 01:33N 38°53' W 009°52'1716.6
2016-Nov-30 00:33N 38°37' W 009°50'1716.7
2016-Nov-29 23:33N 38°21' W 009°45'1817.0
2016-Nov-29 22:30N 38°03' W 009°40'1616.9
2016-Nov-29 21:33N 37°47' W 009°35'22414.8
2016-Nov-29 06:30N 35°58' W 005°32'4 0.4
2016-Nov-28 20:16N 35°54' W 005°33'6 0.6
2016-Nov-28 10:33N 35°59' W 005°29'1110.9
2016-Nov-28 09:33N 36°03' W 005°16'  

Dump ship's entire track history